Time;durP1;ratioP1;P1;durP2;ratioP2;P2;SDS_P1;SDS_P2;PMS_P1;PMS_P2;Temp;Humidity;BMP_temperature;BMP_pressure;BME280_temperature;BME280_humidity;BME280_pressure;Samples;Min_cycle;Max_cycle;Signal;HPM_P1;HPM_P2
2022/06/25 00:00:15;;;;;;;6.00;4.53;;;26.80;98.60;;;;;;1899164;73;21178;-83
2022/06/25 00:02:46;;;;;;;8.98;4.45;;;26.80;98.40;;;;;;1893728;73;21138;-83
2022/06/25 00:07:49;;;;;;;7.45;4.47;;;26.80;98.30;;;;;;1884145;75;21061;-73
2022/06/25 00:10:20;;;;;;;6.50;4.62;;;26.90;98.40;;;;;;1890780;75;21139;-72
2022/06/25 00:12:56;;;;;;;5.17;4.20;;;26.90;98.60;;;;;;1883782;75;21135;-73
2022/06/25 00:15:24;;;;;;;5.33;4.28;;;26.90;98.60;;;;;;1894421;74;21131;-74
2022/06/25 00:17:55;;;;;;;6.40;4.25;;;26.90;98.50;;;;;;1882087;75;21942;-72
2022/06/25 00:20:26;;;;;;;5.62;4.15;;;26.90;98.50;;;;;;1893246;74;21708;-71
2022/06/25 00:22:57;;;;;;;5.95;4.58;;;27.00;98.50;;;;;;1882050;75;21218;-72
2022/06/25 00:25:28;;;;;;;7.00;4.58;;;27.00;98.30;;;;;;1883567;75;21169;-73
2022/06/25 00:27:59;;;;;;;11.10;5.17;;;27.00;98.40;;;;;;1890661;75;21234;-72
2022/06/25 00:30:31;;;;;;;4.85;3.92;;;27.00;98.40;;;;;;1890380;76;21154;-72
2022/06/25 00:33:02;;;;;;;7.28;4.80;;;27.00;98.40;;;;;;1894363;75;21679;-73
2022/06/25 00:35:33;;;;;;;17.30;15.72;;;27.00;98.80;;;;;;1886337;75;21053;-73
2022/06/25 00:38:04;;;;;;;5.97;5.25;;;27.00;98.30;;;;;;1881050;76;21216;-72
2022/06/25 00:40:35;;;;;;;7.12;5.10;;;27.10;98.30;;;;;;1881282;76;21167;-73
2022/06/25 00:43:06;;;;;;;11.73;6.12;;;27.10;98.30;;;;;;1885825;75;21773;-71
2022/06/25 00:45:37;;;;;;;7.80;5.50;;;27.20;98.00;;;;;;1883788;75;21619;-71
2022/06/25 00:48:09;;;;;;;6.70;6.00;;;27.20;98.10;;;;;;1882487;75;21681;-71
2022/06/25 00:50:40;;;;;;;6.85;6.05;;;27.30;97.90;;;;;;1892394;74;21615;-72
2022/06/25 00:53:12;;;;;;;9.08;5.30;;;27.40;97.70;;;;;;1881048;76;21244;-71
2022/06/25 00:55:48;;;;;;;5.90;4.42;;;27.50;97.70;;;;;;1890342;76;21190;-72
2022/06/25 00:58:20;;;;;;;5.47;4.50;;;27.60;97.60;;;;;;1903120;75;21093;-72
2022/06/25 01:00:53;;;;;;;6.50;4.10;;;27.60;97.30;;;;;;1895891;74;21167;-71
2022/06/25 01:03:25;;;;;;;6.72;4.30;;;27.60;97.20;;;;;;1882101;75;21168;-72
2022/06/25 01:05:59;;;;;;;6.60;4.42;;;27.60;97.20;;;;;;1905384;74;21166;-73
2022/06/25 01:08:30;;;;;;;7.22;4.40;;;27.60;97.20;;;;;;1880843;76;21058;-72
2022/06/25 01:11:01;;;;;;;7.35;4.97;;;27.70;97.20;;;;;;1895294;74;21055;-71
2022/06/25 01:13:32;;;;;;;6.22;4.72;;;27.70;96.90;;;;;;1832874;78;21638;-73
2022/06/25 01:16:03;;;;;;;8.50;4.72;;;27.70;96.80;;;;;;1882438;75;21104;-72
2022/06/25 01:18:34;;;;;;;5.95;4.92;;;27.80;96.90;;;;;;1889242;75;21173;-73
2022/06/25 01:21:05;;;;;;;6.85;4.90;;;27.90;96.60;;;;;;1885353;75;21553;-72
2022/06/25 01:23:36;;;;;;;6.45;4.03;;;27.90;96.60;;;;;;1881425;75;21104;-73
2022/06/25 01:26:07;;;;;;;5.62;3.90;;;28.00;96.40;;;;;;1891714;75;21194;-73
2022/06/25 01:28:38;;;;;;;5.75;4.37;;;28.20;96.30;;;;;;1885591;75;21138;-73
2022/06/25 01:31:09;;;;;;;7.25;4.50;;;28.20;96.10;;;;;;1884816;75;21652;-73
2022/06/25 01:33:40;;;;;;;7.35;4.30;;;28.30;96.00;;;;;;1881654;75;21766;-73
2022/06/25 01:36:11;;;;;;;65.75;9.05;;;28.30;95.90;;;;;;1894435;75;21608;-73
2022/06/25 01:38:42;;;;;;;97.72;12.53;;;28.40;95.70;;;;;;1890073;76;21715;-73
2022/06/25 01:41:13;;;;;;;6.00;4.55;;;28.40;95.80;;;;;;1886070;75;21147;-73
2022/06/25 01:43:45;;;;;;;6.78;4.72;;;28.40;95.80;;;;;;1894480;74;21141;-73
2022/06/25 01:46:16;;;;;;;9.48;4.40;;;28.40;95.80;;;;;;1881171;76;21580;-73
2022/06/25 01:48:48;;;;;;;7.87;4.87;;;28.50;95.80;;;;;;1896062;74;21154;-72
2022/06/25 01:51:20;;;;;;;10.35;4.53;;;28.60;95.50;;;;;;1886170;75;21139;-72
2022/06/25 01:53:51;;;;;;;7.80;4.10;;;28.70;95.60;;;;;;1836387;78;21617;-73
2022/06/25 01:56:22;;;;;;;4.87;4.37;;;28.80;95.60;;;;;;1885693;75;21257;-72
2022/06/25 01:58:53;;;;;;;8.45;5.03;;;28.90;95.00;;;;;;1886205;75;21085;-72
2022/06/25 02:01:24;;;;;;;5.97;4.12;;;29.00;94.90;;;;;;1885942;75;21618;-73
2022/06/25 02:03:55;;;;;;;5.87;4.60;;;29.10;94.30;;;;;;1885686;75;21657;-72
2022/06/25 02:06:27;;;;;;;8.40;5.03;;;29.10;94.50;;;;;;1886497;75;21222;-72
2022/06/25 02:08:59;;;;;;;5.35;4.12;;;29.00;94.30;;;;;;1891424;75;21135;-71
2022/06/25 02:11:30;;;;;;;6.53;4.58;;;29.00;94.40;;;;;;1885512;75;21083;-71
2022/06/25 02:14:01;;;;;;;6.90;5.10;;;29.00;94.20;;;;;;1907332;75;21233;-72
2022/06/25 02:16:33;;;;;;;8.75;5.05;;;29.00;94.00;;;;;;1892790;75;21635;-72
2022/06/25 02:19:04;;;;;;;6.92;4.65;;;28.90;94.20;;;;;;1906391;74;21134;-72
2022/06/25 02:21:35;;;;;;;6.12;4.95;;;28.90;94.40;;;;;;1890303;75;21673;-72
2022/06/25 02:24:06;;;;;;;7.72;4.78;;;28.90;94.50;;;;;;1881174;76;21495;-72
2022/06/25 02:26:37;;;;;;;7.65;5.37;;;28.90;94.60;;;;;;1881074;76;21643;-71
2022/06/25 02:29:08;;;;;;;7.33;4.83;;;28.90;94.80;;;;;;1881128;76;21592;-72
2022/06/25 02:31:39;;;;;;;6.08;4.20;;;28.90;94.50;;;;;;1880962;76;21117;-72
2022/06/25 02:34:10;;;;;;;6.08;4.83;;;28.90;94.80;;;;;;1881082;75;21635;-71
2022/06/25 02:36:40;;;;;;;6.22;4.50;;;28.90;94.50;;;;;;1881253;76;21213;-72
2022/06/25 02:39:11;;;;;;;6.53;4.72;;;29.00;94.50;;;;;;1880922;76;21124;-72
2022/06/25 02:41:43;;;;;;;5.15;4.47;;;29.00;94.50;;;;;;1864062;76;21087;-72
2022/06/25 02:44:14;;;;;;;10.65;4.47;;;29.00;94.50;;;;;;1880550;75;21164;-74
2022/06/25 02:46:45;;;;;;;6.15;4.47;;;29.10;94.90;;;;;;1881613;75;21148;-72
2022/06/25 02:49:16;;;;;;;6.35;4.47;;;29.10;94.50;;;;;;1881604;75;21160;-73
2022/06/25 02:51:47;;;;;;;7.45;4.50;;;29.10;94.60;;;;;;1882314;75;21090;-72
2022/06/25 02:54:19;;;;;;;5.37;3.98;;;29.10;94.60;;;;;;1880614;75;21638;-72
2022/06/25 02:59:21;;;;;;;6.83;4.28;;;29.10;94.40;;;;;;1887769;76;21628;-73
2022/06/25 03:01:55;;;;;;;8.23;4.42;;;29.10;94.40;;;;;;1898061;74;21108;-73
2022/06/25 03:04:26;;;;;;;5.55;4.20;;;29.10;94.60;;;;;;1903997;74;21101;-72
2022/06/25 03:06:57;;;;;;;5.87;4.95;;;29.00;94.60;;;;;;1891777;74;21311;-73
2022/06/25 03:09:28;;;;;;;9.33;4.65;;;29.10;94.30;;;;;;1880553;76;21112;-72
2022/06/25 03:11:59;;;;;;;5.92;4.33;;;29.10;94.30;;;;;;1883357;75;21182;-72
2022/06/25 03:14:30;;;;;;;6.50;4.70;;;29.20;94.30;;;;;;1890822;75;21139;-71
2022/06/25 03:17:01;;;;;;;6.22;4.72;;;29.30;94.30;;;;;;1881446;75;21210;-71
2022/06/25 03:19:32;;;;;;;6.10;4.70;;;29.40;94.10;;;;;;1883775;75;21131;-70
2022/06/25 03:22:04;;;;;;;5.80;4.35;;;29.50;93.90;;;;;;1887258;75;21111;-71
2022/06/25 03:24:35;;;;;;;6.83;4.22;;;29.60;94.00;;;;;;1907012;74;21139;-72
2022/06/25 03:27:06;;;;;;;7.37;4.50;;;29.70;93.60;;;;;;1883312;75;21136;-71
2022/06/25 03:29:37;;;;;;;6.00;3.85;;;29.70;93.60;;;;;;1881558;75;21524;-71
2022/06/25 03:32:08;;;;;;;6.95;3.85;;;29.90;93.30;;;;;;1890307;76;21103;-71
2022/06/25 03:34:39;;;;;;;5.58;3.87;;;30.00;93.00;;;;;;1881456;75;21627;-71
2022/06/25 03:37:10;;;;;;;6.03;4.05;;;30.10;92.80;;;;;;1881152;75;21120;-71
2022/06/25 03:39:41;;;;;;;5.37;3.83;;;30.20;92.70;;;;;;1883247;75;21096;-70
2022/06/25 03:42:12;;;;;;;6.12;4.55;;;30.40;92.30;;;;;;1889145;74;21166;-71
2022/06/25 03:44:44;;;;;;;9.08;4.15;;;30.50;92.60;;;;;;1889969;75;21536;-72
2022/06/25 03:47:15;;;;;;;3.98;3.55;;;30.60;92.10;;;;;;1899047;75;21151;-71
2022/06/25 03:49:46;;;;;;;7.95;4.03;;;30.70;91.90;;;;;;1900750;75;21554;-72
2022/06/25 03:52:17;;;;;;;9.00;3.95;;;30.80;91.70;;;;;;1893239;75;21125;-71
2022/06/25 03:54:47;;;;;;;7.20;4.50;;;30.90;91.60;;;;;;1889732;75;21788;-71
2022/06/25 03:57:18;;;;;;;5.42;4.12;;;31.00;91.50;;;;;;1911476;75;21140;-73
2022/06/25 03:59:49;;;;;;;6.45;4.10;;;31.20;90.50;;;;;;1881039;75;21146;-71
2022/06/25 04:02:20;;;;;;;6.60;4.10;;;31.20;90.40;;;;;;1880255;75;21154;-72
2022/06/25 04:04:51;;;;;;;5.40;3.75;;;31.30;90.50;;;;;;1882533;75;21178;-72
2022/06/25 04:07:22;;;;;;;5.17;3.77;;;31.40;90.40;;;;;;1897870;75;21080;-72
2022/06/25 04:09:54;;;;;;;7.55;4.00;;;31.60;90.00;;;;;;1904966;75;21584;-72
2022/06/25 04:12:25;;;;;;;9.25;4.35;;;31.60;89.70;;;;;;1904985;75;21315;-71
2022/06/25 04:14:56;;;;;;;7.72;3.77;;;31.70;89.60;;;;;;1904903;75;21665;-73
2022/06/25 04:17:27;;;;;;;4.58;3.67;;;31.70;89.30;;;;;;1887079;75;21129;-72
2022/06/25 04:19:59;;;;;;;7.75;3.83;;;31.80;88.70;;;;;;1830505;78;21636;-73
2022/06/25 04:22:30;;;;;;;7.08;3.72;;;31.90;87.80;;;;;;1891643;75;21603;-72
2022/06/25 04:25:01;;;;;;;6.80;3.98;;;31.90;89.20;;;;;;1887391;75;21088;-73
2022/06/25 04:30:05;;;;;;;6.33;3.42;;;32.00;88.20;;;;;;1885577;75;21150;-74
2022/06/25 04:32:36;;;;;;;6.45;4.12;;;32.00;87.90;;;;;;1888851;75;21126;-74
2022/06/25 04:35:07;;;;;;;5.78;4.08;;;32.00;87.80;;;;;;1889348;75;21151;-72
2022/06/25 04:37:38;;;;;;;5.95;3.95;;;32.10;88.30;;;;;;1890488;75;21170;-72
2022/06/25 04:40:10;;;;;;;6.25;4.10;;;32.10;87.90;;;;;;1886922;75;21756;-72
2022/06/25 04:42:41;;;;;;;7.30;4.22;;;32.10;87.60;;;;;;1890588;75;21642;-73
2022/06/25 04:45:13;;;;;;;5.65;3.90;;;32.00;88.10;;;;;;1892546;75;21523;-72
2022/06/25 04:47:43;;;;;;;6.15;4.25;;;31.90;88.20;;;;;;1881627;75;21151;-72
2022/06/25 04:50:14;;;;;;;4.85;3.72;;;31.90;88.30;;;;;;1890913;74;21209;-72
2022/06/25 04:52:45;;;;;;;9.23;4.75;;;32.00;88.30;;;;;;1887469;75;21131;-73
2022/06/25 04:55:16;;;;;;;5.50;4.10;;;32.00;87.40;;;;;;1902518;75;21136;-73
2022/06/25 04:57:48;;;;;;;6.92;4.45;;;32.00;87.80;;;;;;1881642;75;21930;-72
2022/06/25 05:00:18;;;;;;;7.65;4.50;;;32.00;87.70;;;;;;1882024;75;21577;-73
2022/06/25 05:02:49;;;;;;;5.58;4.28;;;31.90;87.70;;;;;;1888882;75;21178;-73
2022/06/25 05:05:20;;;;;;;5.72;4.65;;;31.80;88.00;;;;;;1885457;75;21193;-73
2022/06/25 05:07:52;;;;;;;8.08;3.92;;;31.70;88.10;;;;;;1891197;74;21086;-73
2022/06/25 05:10:22;;;;;;;5.97;4.33;;;31.60;88.50;;;;;;1881165;75;21102;-73
2022/06/25 05:15:26;;;;;;;9.85;4.37;;;31.80;88.00;;;;;;1835333;77;21135;-72
2022/06/25 05:17:57;;;;;;;6.83;4.08;;;31.80;85.90;;;;;;1885346;74;21057;-72
2022/06/25 05:20:28;;;;;;;5.70;3.75;;;31.90;86.70;;;;;;1890789;74;21621;-73
2022/06/25 05:22:59;;;;;;;4.15;3.50;;;32.00;86.10;;;;;;1880850;75;21670;-73
2022/06/25 05:25:30;;;;;;;5.47;4.15;;;32.10;86.60;;;;;;1915349;74;21516;-73
2022/06/25 05:28:01;;;;;;;7.78;3.67;;;32.20;87.40;;;;;;1887618;75;21525;-73
2022/06/25 05:30:32;;;;;;;6.30;3.62;;;32.40;85.00;;;;;;1892031;74;21174;-74
2022/06/25 05:33:04;;;;;;;6.00;3.37;;;32.50;84.40;;;;;;1881384;76;21136;-72
2022/06/25 05:35:35;;;;;;;6.80;4.03;;;32.60;83.80;;;;;;1881338;76;21108;-72
2022/06/25 05:38:08;;;;;;;6.40;3.70;;;32.60;84.10;;;;;;1881230;76;21131;-72
2022/06/25 05:40:40;;;;;;;4.87;3.72;;;32.60;84.10;;;;;;1883854;75;21644;-73
2022/06/25 05:43:11;;;;;;;4.60;3.70;;;32.70;83.40;;;;;;1890771;74;21614;-72
2022/06/25 05:45:42;;;;;;;4.85;3.62;;;32.70;82.90;;;;;;1891567;75;21614;-72
2022/06/25 05:48:12;;;;;;;4.53;3.15;;;32.70;82.30;;;;;;1897979;74;21582;-73
2022/06/25 05:50:44;;;;;;;4.78;3.15;;;32.70;81.40;;;;;;1894646;74;21603;-73
2022/06/25 05:53:15;;;;;;;3.60;3.02;;;32.70;81.80;;;;;;1897257;74;21145;-73
2022/06/25 05:55:46;;;;;;;5.62;3.90;;;32.60;84.10;;;;;;1914929;74;22373;-73
2022/06/25 05:58:17;;;;;;;5.65;3.90;;;32.40;84.10;;;;;;1923877;74;21174;-73
2022/06/25 06:00:49;;;;;;;7.12;3.40;;;32.40;84.40;;;;;;1893828;74;21126;-73
2022/06/25 06:03:20;;;;;;;4.12;3.02;;;32.20;83.90;;;;;;1900413;75;21158;-73
2022/06/25 06:05:51;;;;;;;5.42;3.60;;;32.20;84.40;;;;;;1900468;75;21213;-73
2022/06/25 06:08:22;;;;;;;4.83;3.20;;;32.10;84.60;;;;;;1898613;74;21135;-72
2022/06/25 06:10:53;;;;;;;4.58;3.33;;;32.00;84.70;;;;;;1891687;74;21310;-73
2022/06/25 06:13:24;;;;;;;3.83;3.08;;;32.00;84.40;;;;;;1891753;74;21162;-72
2022/06/25 06:15:55;;;;;;;5.72;3.02;;;32.10;85.10;;;;;;1897185;74;21135;-72
2022/06/25 06:18:26;;;;;;;3.50;2.92;;;32.20;84.10;;;;;;1898449;75;21593;-73
2022/06/25 06:20:56;;;;;;;3.52;2.85;;;32.30;83.20;;;;;;1899211;75;21095;-72
2022/06/25 06:23:27;;;;;;;4.58;2.37;;;32.40;81.90;;;;;;1906026;74;21124;-72
2022/06/25 06:25:58;;;;;;;4.67;3.00;;;32.40;82.10;;;;;;1921807;74;21135;-74
2022/06/25 06:28:30;;;;;;;4.10;2.65;;;32.50;82.60;;;;;;1905692;73;21177;-74
2022/06/25 06:31:01;;;;;;;6.35;2.92;;;32.50;81.70;;;;;;1905994;74;21377;-73
2022/06/25 06:33:31;;;;;;;3.83;2.60;;;32.60;81.40;;;;;;1906327;74;21115;-73
2022/06/25 06:36:03;;;;;;;4.37;2.40;;;32.60;79.70;;;;;;1914842;74;21135;-73
2022/06/25 06:38:34;;;;;;;3.17;2.50;;;32.60;80.20;;;;;;1891897;75;21179;-73
2022/06/25 06:41:06;;;;;;;2.98;1.82;;;32.60;79.40;;;;;;1897214;74;21579;-72
2022/06/25 06:43:36;;;;;;;4.05;2.40;;;32.60;78.60;;;;;;1900976;75;21163;-73
2022/06/25 06:46:08;;;;;;;3.58;2.10;;;32.60;78.40;;;;;;1888140;75;21170;-73
2022/06/25 06:48:39;;;;;;;2.60;2.20;;;32.60;78.40;;;;;;1883300;75;21224;-73
2022/06/25 06:51:10;;;;;;;3.90;2.42;;;32.60;78.60;;;;;;1892834;75;21176;-72
2022/06/25 06:53:41;;;;;;;4.65;2.50;;;32.70;79.30;;;;;;1849970;77;21154;-72
2022/06/25 06:56:12;;;;;;;5.08;2.92;;;32.70;78.50;;;;;;1881541;75;21100;-72
2022/06/25 06:58:43;;;;;;;4.65;2.70;;;32.80;77.50;;;;;;1882857;75;21159;-72
2022/06/25 07:01:14;;;;;;;4.97;3.02;;;32.80;78.40;;;;;;1881858;75;21088;-73
2022/06/25 07:03:45;;;;;;;4.62;2.75;;;32.70;79.30;;;;;;1891284;75;21084;-73
2022/06/25 07:06:15;;;;;;;4.35;2.20;;;32.60;79.30;;;;;;1887776;75;21197;-73
2022/06/25 07:08:47;;;;;;;3.90;2.60;;;32.70;79.30;;;;;;1897024;75;21189;-73
2022/06/25 07:11:29;;;;;;;4.00;2.90;;;32.70;79.50;;;;;;1884410;75;21104;-73
2022/06/25 07:13:54;;;;;;;4.80;3.02;;;32.70;78.80;;;;;;1890738;75;21650;-73
2022/06/25 07:16:26;;;;;;;4.08;2.35;;;32.70;78.10;;;;;;1883456;75;21150;-72
2022/06/25 07:18:58;;;;;;;4.08;2.40;;;32.70;76.90;;;;;;1891515;75;21076;-75
2022/06/25 07:21:33;;;;;;;3.08;2.30;;;32.70;77.60;;;;;;1882467;75;21158;-73
2022/06/25 07:24:04;;;;;;;3.30;2.30;;;32.80;77.10;;;;;;1896262;75;21189;-73
2022/06/25 07:26:35;;;;;;;4.45;2.52;;;32.80;77.30;;;;;;1904184;75;21064;-74
2022/06/25 07:29:06;;;;;;;3.65;2.50;;;32.80;76.70;;;;;;1897705;75;21672;-74
2022/06/25 07:31:38;;;;;;;4.78;2.50;;;32.80;77.70;;;;;;1897494;75;21162;-73
2022/06/25 07:34:10;;;;;;;4.60;2.30;;;32.80;76.90;;;;;;1886772;75;21194;-73
2022/06/25 07:36:41;;;;;;;5.45;2.60;;;32.80;78.30;;;;;;1894882;75;21064;-73
2022/06/25 07:39:12;;;;;;;3.83;2.00;;;32.80;78.60;;;;;;1896306;75;21690;-74
2022/06/25 07:41:44;;;;;;;2.90;2.20;;;32.90;78.90;;;;;;1889396;75;21581;-74
2022/06/25 07:44:14;;;;;;;5.65;2.40;;;33.00;77.60;;;;;;1875346;75;21163;-73
2022/06/25 07:46:46;;;;;;;4.10;2.20;;;33.00;77.50;;;;;;1866831;75;21159;-73
2022/06/25 07:49:17;;;;;;;2.35;1.85;;;33.00;76.90;;;;;;1874062;76;21053;-73
2022/06/25 07:51:59;;;;;;;3.00;2.02;;;33.00;76.90;;;;;;1869220;75;21554;-73
2022/06/25 07:54:22;;;;;;;3.98;2.05;;;33.00;76.80;;;;;;1890294;75;21707;-73
2022/06/25 07:56:53;;;;;;;5.53;2.00;;;33.00;76.30;;;;;;1891294;75;21099;-74
2022/06/25 07:59:24;;;;;;;3.42;2.10;;;33.00;76.20;;;;;;1887766;76;21072;-73
2022/06/25 08:01:55;;;;;;;4.33;1.90;;;33.00;76.90;;;;;;1887604;76;21185;-73
2022/06/25 08:04:26;;;;;;;4.47;1.92;;;33.00;75.80;;;;;;1878485;76;21581;-74
2022/06/25 08:06:57;;;;;;;4.30;1.90;;;33.10;76.20;;;;;;1880393;76;21147;-73
2022/06/25 08:09:28;;;;;;;4.47;1.92;;;33.10;74.20;;;;;;1884833;75;21120;-74
2022/06/25 08:11:59;;;;;;;3.10;1.77;;;33.20;74.70;;;;;;1863976;77;21167;-74
2022/06/25 08:14:30;;;;;;;3.10;1.75;;;33.20;73.70;;;;;;1868469;75;21113;-73
2022/06/25 08:17:01;;;;;;;2.90;1.85;;;33.10;74.00;;;;;;1882041;75;21136;-73
2022/06/25 08:19:32;;;;;;;2.08;1.57;;;33.20;73.20;;;;;;1864208;77;21101;-73
2022/06/25 08:22:03;;;;;;;3.58;1.98;;;33.10;72.70;;;;;;1875313;75;21116;-74
2022/06/25 08:24:34;;;;;;;2.08;1.42;;;33.10;73.30;;;;;;1872433;75;21136;-73
2022/06/25 08:27:05;;;;;;;3.37;1.60;;;33.10;72.30;;;;;;1881124;75;21049;-73
2022/06/25 08:29:36;;;;;;;3.37;1.70;;;33.10;71.60;;;;;;1888534;75;21129;-74
2022/06/25 08:32:07;;;;;;;3.87;2.08;;;33.10;73.50;;;;;;1870920;75;21134;-74
2022/06/25 08:34:40;;;;;;;3.52;2.02;;;33.10;72.80;;;;;;1881015;76;21545;-74
2022/06/25 08:37:10;;;;;;;3.60;2.08;;;33.10;73.30;;;;;;1883932;75;21159;-73
2022/06/25 08:39:41;;;;;;;2.55;1.55;;;33.00;73.40;;;;;;1883851;75;21612;-74
2022/06/25 08:42:12;;;;;;;2.50;1.40;;;33.00;71.40;;;;;;1880578;75;21591;-73
2022/06/25 08:44:44;;;;;;;3.85;1.55;;;33.00;72.60;;;;;;1870879;76;21552;-73
2022/06/25 08:47:16;;;;;;;3.75;2.05;;;33.00;72.90;;;;;;1885219;76;21592;-74
2022/06/25 08:49:47;;;;;;;3.98;2.27;;;33.00;72.70;;;;;;1886324;75;21560;-73
2022/06/25 08:52:19;;;;;;;2.12;1.70;;;33.00;75.70;;;;;;1870069;75;21219;-72
2022/06/25 08:54:51;;;;;;;3.52;2.05;;;33.00;75.00;;;;;;1885272;76;21610;-73
2022/06/25 08:57:23;;;;;;;5.05;1.82;;;32.90;75.10;;;;;;1873342;75;21081;-73
2022/06/25 08:59:55;;;;;;;4.10;2.08;;;32.90;74.90;;;;;;1867615;75;21655;-73
2022/06/25 09:02:27;;;;;;;4.92;1.35;;;32.80;75.30;;;;;;1893113;75;21603;-74
2022/06/25 09:04:58;;;;;;;2.87;2.00;;;32.80;74.80;;;;;;1886756;75;22150;-73
2022/06/25 09:07:30;;;;;;;3.08;1.90;;;32.80;75.60;;;;;;1873316;75;21666;-73
2022/06/25 09:10:01;;;;;;;3.22;2.00;;;32.70;76.30;;;;;;1880086;76;21217;-74
2022/06/25 09:12:33;;;;;;;2.87;2.00;;;32.70;76.40;;;;;;1867921;76;21144;-73
2022/06/25 09:15:07;;;;;;;5.97;2.33;;;32.70;77.10;;;;;;1864694;76;21584;-74
2022/06/25 09:17:41;;;;;;;2.80;2.10;;;32.60;77.70;;;;;;1863816;75;21137;-74
2022/06/25 09:20:12;;;;;;;3.98;1.82;;;32.60;78.10;;;;;;1863379;75;21613;-74
2022/06/25 09:22:46;;;;;;;2.15;1.70;;;32.60;78.30;;;;;;1876478;75;21545;-73
2022/06/25 09:25:20;;;;;;;2.77;1.60;;;32.60;77.80;;;;;;1903997;75;21233;-73
2022/06/25 09:27:51;;;;;;;3.72;1.98;;;32.50;78.00;;;;;;1889686;75;21597;-73
2022/06/25 09:30:23;;;;;;;4.17;2.10;;;32.50;78.30;;;;;;1877312;75;21138;-73
2022/06/25 09:33:02;;;;;;;3.25;1.98;;;32.50;78.20;;;;;;1894760;75;21139;-72
2022/06/25 09:35:42;;;;;;;3.40;2.05;;;32.50;78.90;;;;;;1873462;75;21132;-72
2022/06/25 09:38:16;;;;;;;2.72;1.95;;;32.50;78.80;;;;;;1843207;78;21159;-73
2022/06/25 09:40:49;;;;;;;3.83;2.22;;;32.50;78.50;;;;;;1875013;75;21088;-72
2022/06/25 09:43:22;;;;;;;4.85;2.60;;;32.40;77.50;;;;;;1886579;75;21084;-72
2022/06/25 09:45:56;;;;;;;2.70;2.00;;;32.40;78.00;;;;;;1878079;75;21170;-74
2022/06/25 09:48:29;;;;;;;3.85;2.05;;;32.40;77.80;;;;;;1905682;74;21622;-73
2022/06/25 09:51:02;;;;;;;3.33;2.08;;;32.40;78.20;;;;;;1895213;75;21155;-73
2022/06/25 09:53:35;;;;;;;4.55;2.55;;;32.40;78.70;;;;;;1908772;74;21524;-72
2022/06/25 09:56:06;;;;;;;3.20;2.15;;;32.40;78.80;;;;;;1834174;78;21150;-73
2022/06/25 09:58:44;;;;;;;4.13;2.40;;;32.40;79.40;;;;;;1925439;74;21668;-73
2022/06/25 10:01:17;;;;;;;2.72;2.15;;;32.30;79.30;;;;;;1910442;74;21204;-72
2022/06/25 10:03:49;;;;;;;4.72;2.08;;;32.30;79.40;;;;;;1893288;75;21178;-71
2022/06/25 10:06:22;;;;;;;4.28;2.08;;;32.30;79.10;;;;;;1897138;75;21130;-72
2022/06/25 10:08:56;;;;;;;2.87;1.82;;;32.20;78.40;;;;;;1905625;74;21685;-72
2022/06/25 10:11:30;;;;;;;4.47;2.40;;;32.30;78.40;;;;;;1898478;74;21814;-72
2022/06/25 10:14:02;;;;;;;2.92;2.02;;;32.20;77.70;;;;;;1896250;74;21724;-72
2022/06/25 10:16:39;;;;;;;4.85;2.33;;;32.20;77.90;;;;;;1908159;74;21131;-73
2022/06/25 10:19:14;;;;;;;3.27;2.20;;;32.20;78.10;;;;;;1895979;74;21206;-73
2022/06/25 10:21:44;;;;;;;4.87;2.40;;;32.20;78.10;;;;;;1900315;74;21152;-74
2022/06/25 10:24:15;;;;;;;3.35;2.12;;;32.10;77.80;;;;;;1892389;76;21529;-72
2022/06/25 10:26:46;;;;;;;3.50;1.80;;;32.10;77.80;;;;;;1894641;74;21166;-85
2022/06/25 10:29:20;;;;;;;4.92;2.87;;;32.10;78.30;;;;;;1893161;75;21625;-83
2022/06/25 10:32:10;;;;;;;5.62;3.70;;;32.00;79.40;;;;;;1891729;76;21257;-82
2022/06/25 10:34:30;;;;;;;9.80;4.15;;;32.00;81.70;;;;;;1887863;76;21155;-83
2022/06/25 10:37:04;;;;;;;5.70;4.22;;;31.80;83.40;;;;;;1892780;75;22361;-83
2022/06/25 10:39:37;;;;;;;6.60;4.25;;;31.60;83.90;;;;;;1893269;76;21131;-85
2022/06/25 10:44:46;;;;;;;9.35;4.47;;;31.10;86.90;;;;;;1886889;76;21216;-84
2022/06/25 10:47:18;;;;;;;7.30;4.10;;;30.90;88.90;;;;;;1884628;76;21552;-82
2022/06/25 10:49:49;;;;;;;7.70;3.65;;;30.70;88.80;;;;;;1889550;75;21143;-82
2022/06/25 10:52:20;;;;;;;6.05;3.50;;;30.50;89.20;;;;;;1880354;76;21633;-82
2022/06/25 10:54:52;;;;;;;10.53;3.45;;;30.30;89.90;;;;;;1879841;76;21599;-82
2022/06/25 10:57:26;;;;;;;7.22;3.70;;;30.10;89.60;;;;;;1880873;76;21084;-82
2022/06/25 10:59:59;;;;;;;5.97;3.70;;;30.00;90.10;;;;;;1877396;76;21578;-83
2022/06/25 11:02:30;;;;;;;6.55;3.42;;;29.90;90.40;;;;;;1879764;75;21178;-82
2022/06/25 11:05:01;;;;;;;6.80;3.62;;;29.70;91.20;;;;;;1880032;76;21634;-83
2022/06/25 11:07:33;;;;;;;4.67;2.65;;;29.60;90.80;;;;;;1884543;75;21646;-83
2022/06/25 11:10:05;;;;;;;4.53;2.52;;;29.40;90.50;;;;;;1880159;76;21653;-82
2022/06/25 11:12:38;;;;;;;4.10;2.67;;;29.30;90.50;;;;;;1880056;76;21749;-82
2022/06/25 11:15:10;;;;;;;7.75;2.37;;;29.20;91.20;;;;;;1879983;76;21100;-82
2022/06/25 11:17:43;;;;;;;4.95;2.20;;;29.20;90.90;;;;;;1880101;76;21092;-83
2022/06/25 11:20:14;;;;;;;4.60;2.37;;;29.10;90.80;;;;;;1879810;76;21092;-82
2022/06/25 11:22:48;;;;;;;6.62;2.15;;;29.10;91.40;;;;;;1881004;75;21163;-82
2022/06/25 11:30:25;;;;;;;7.33;2.30;;;28.90;92.30;;;;;;1899065;75;21096;-81
2022/06/25 11:32:57;;;;;;;6.35;2.87;;;28.80;92.00;;;;;;1889720;75;21653;-82
2022/06/25 11:35:31;;;;;;;6.35;2.90;;;28.80;92.20;;;;;;1884443;75;21171;-83
2022/06/25 11:38:03;;;;;;;6.40;2.62;;;28.80;92.50;;;;;;1878541;75;21197;-82
2022/06/25 11:40:34;;;;;;;4.37;2.70;;;28.70;92.70;;;;;;1880509;76;21100;-82
2022/06/25 11:43:07;;;;;;;4.97;2.33;;;28.70;92.80;;;;;;1881221;75;21155;-82
2022/06/25 11:45:41;;;;;;;6.22;2.55;;;28.60;93.00;;;;;;1891925;75;21097;-82
2022/06/25 11:48:12;;;;;;;6.28;2.60;;;28.60;93.30;;;;;;1883977;75;21214;-82
2022/06/25 11:50:44;;;;;;;5.37;3.35;;;28.50;93.30;;;;;;1837689;77;21143;-82
2022/06/25 11:53:16;;;;;;;7.00;3.58;;;28.50;93.50;;;;;;1839727;78;21171;-82
2022/06/25 11:55:49;;;;;;;6.60;2.95;;;28.40;93.50;;;;;;1882898;75;21529;-82
2022/06/25 11:58:20;;;;;;;5.92;3.27;;;28.40;93.60;;;;;;1870400;75;21148;-81
2022/06/25 12:00:51;;;;;;;5.95;3.20;;;28.40;93.90;;;;;;1882121;75;21692;-82
2022/06/25 12:03:24;;;;;;;6.30;3.60;;;28.40;93.80;;;;;;1881855;76;21638;-82
2022/06/25 12:05:57;;;;;;;5.97;3.33;;;28.40;94.00;;;;;;1883071;75;21573;-82
2022/06/25 12:08:29;;;;;;;6.28;3.90;;;28.40;94.00;;;;;;1906085;75;21100;-82
2022/06/25 12:11:01;;;;;;;8.20;3.33;;;28.40;94.00;;;;;;1878615;75;21163;-81
2022/06/25 12:13:33;;;;;;;6.25;3.62;;;28.40;93.90;;;;;;1883566;75;21473;-82
2022/06/25 12:16:05;;;;;;;5.65;2.42;;;28.40;93.90;;;;;;1888013;75;21128;-82
2022/06/25 12:18:39;;;;;;;5.90;2.40;;;28.50;93.30;;;;;;1871095;75;21144;-82
2022/06/25 12:21:12;;;;;;;6.67;2.70;;;28.50;93.00;;;;;;1864385;77;21205;-82
2022/06/25 12:23:45;;;;;;;7.00;3.40;;;28.50;92.80;;;;;;1828031;78;21081;-83
2022/06/25 12:26:18;;;;;;;5.42;2.65;;;28.60;92.60;;;;;;1875305;75;21129;-83
2022/06/25 12:28:49;;;;;;;4.37;2.22;;;28.60;92.50;;;;;;1873623;75;21663;-82
2022/06/25 12:31:22;;;;;;;4.83;2.50;;;28.60;92.50;;;;;;1885047;75;21098;-82
2022/06/25 12:33:53;;;;;;;6.00;2.75;;;28.70;93.20;;;;;;1880376;75;21667;-82
2022/06/25 12:36:26;;;;;;;5.78;2.55;;;28.60;93.90;;;;;;1831025;78;21144;-82
2022/06/25 12:38:57;;;;;;;5.95;2.92;;;28.50;94.40;;;;;;1875644;75;21176;-83
2022/06/25 12:41:30;;;;;;;4.87;2.70;;;28.50;95.10;;;;;;1879968;75;21160;-83
2022/06/25 12:44:01;;;;;;;5.37;2.83;;;28.40;94.90;;;;;;1865614;75;21599;-82
2022/06/25 12:46:32;;;;;;;4.72;2.65;;;28.30;95.60;;;;;;1875121;75;21177;-82
2022/06/25 12:49:03;;;;;;;3.72;2.62;;;28.30;95.30;;;;;;1869955;75;21163;-82
2022/06/25 12:51:34;;;;;;;4.67;2.50;;;28.20;94.90;;;;;;1876984;75;21536;-83
2022/06/25 12:54:08;;;;;;;4.67;2.92;;;28.20;95.20;;;;;;1873224;75;21146;-83
2022/06/25 12:56:40;;;;;;;3.87;2.30;;;28.20;95.00;;;;;;1870634;76;21142;-82
2022/06/25 12:59:14;;;;;;;8.68;2.83;;;28.20;94.80;;;;;;1865182;75;21908;-84
2022/06/25 13:01:48;;;;;;;4.45;2.50;;;28.10;95.00;;;;;;1865139;75;21155;-85
2022/06/25 13:04:19;;;;;;;5.08;2.45;;;28.20;94.90;;;;;;1864110;77;21136;-83
2022/06/25 13:06:50;;;;;;;8.50;2.37;;;28.10;94.90;;;;;;1879022;72;21104;-82
2022/06/25 13:09:22;;;;;;;6.53;2.30;;;28.00;95.20;;;;;;1891860;72;21091;-84
2022/06/25 13:11:57;;;;;;;3.50;2.25;;;28.00;95.20;;;;;;1893178;73;21112;-83
2022/06/25 13:14:28;;;;;;;6.15;2.30;;;28.00;95.20;;;;;;1858232;74;21111;-83
2022/06/25 13:16:59;;;;;;;4.58;1.60;;;28.00;95.40;;;;;;1893506;72;21041;-82
2022/06/25 13:19:34;;;;;;;3.60;1.70;;;28.00;94.50;;;;;;1845571;77;21084;-84
2022/06/25 13:22:10;;;;;;;3.70;1.80;;;28.00;95.00;;;;;;1869268;76;21119;-84
2022/06/25 13:24:44;;;;;;;4.03;1.90;;;27.90;95.30;;;;;;1851950;74;21190;-83